TimeCST,TemperatureF,Dew PointF,Humidity,Sea Level PressureIn,VisibilityMPH,Wind Direction,Wind SpeedMPH,Gust SpeedMPH,PrecipitationIn,Events,Conditions,WindDirDegrees,DateUTC
12:15 AM,7.2,2.1,80,29.55,7.0,WSW,9.2,18.4,N/A,,Overcast,250,2014-02-22 06:15:00
12:35 AM,6.8,1.9,80,29.55,7.0,WSW,5.8,16.1,N/A,,Overcast,250,2014-02-22 06:35:00
12:55 AM,6.8,1.9,80,29.56,5.0,West,10.4,16.1,N/A,,Haze,260,2014-02-22 06:55:00
1:15 AM,6.4,1.4,80,29.56,7.0,WSW,6.9,23.0,N/A,,Overcast,250,2014-02-22 07:15:00
1:35 AM,5.9,0.9,80,29.57,7.0,West,8.1,17.3,N/A,,Overcast,270,2014-02-22 07:35:00
1:55 AM,5.9,1.0,80,29.57,7.0,West,8.1,16.1,N/A,,Overcast,270,2014-02-22 07:55:00
2:15 AM,5.9,0.9,80,29.58,7.0,West,10.4,20.7,N/A,,Overcast,260,2014-02-22 08:15:00
2:35 AM,5.9,0.9,80,29.59,7.0,West,6.9,-,N/A,,Overcast,260,2014-02-22 08:35:00
2:55 AM,5.9,0.9,80,29.60,7.0,WSW,8.1,-,N/A,,Overcast,250,2014-02-22 08:55:00
3:15 AM,5.9,1.2,81,29.61,7.0,WSW,8.1,-,N/A,,Overcast,250,2014-02-22 09:15:00
3:35 AM,5.9,1.4,82,29.61,7.0,WSW,9.2,17.3,N/A,,Overcast,250,2014-02-22 09:35:00
3:55 AM,5.9,1.0,80,29.62,7.0,WSW,10.4,20.7,N/A,,Overcast,250,2014-02-22 09:55:00
4:15 AM,5.7,0.5,79,29.63,5.0,WSW,12.7,21.9,N/A,,Haze,250,2014-02-22 10:15:00
4:35 AM,5.4,0.5,80,29.64,10.0,WSW,10.4,-,N/A,,Overcast,240,2014-02-22 10:35:00
4:55 AM,5.0,0.1,80,29.65,10.0,WSW,10.4,-,N/A,,Overcast,250,2014-02-22 10:55:00
5:15 AM,4.6,-0.4,80,29.65,7.0,WSW,10.4,18.4,N/A,,Overcast,240,2014-02-22 11:15:00
5:35 AM,4.5,-0.4,80,29.65,7.0,WSW,12.7,20.7,N/A,,Overcast,250,2014-02-22 11:35:00
5:55 AM,4.1,-0.8,80,29.66,7.0,WSW,15.0,20.7,N/A,,Overcast,240,2014-02-22 11:55:00
6:15 AM,3.7,-1.3,80,29.67,7.0,WSW,13.8,18.4,N/A,,Overcast,240,2014-02-22 12:15:00
6:35 AM,3.6,-1.5,80,29.68,7.0,WSW,8.1,17.3,N/A,,Overcast,250,2014-02-22 12:35:00
6:55 AM,3.0,-1.8,80,29.68,10.0,WSW,11.5,17.3,N/A,,Overcast,250,2014-02-22 12:55:00
7:15 AM,2.5,-2.2,81,29.69,10.0,West,8.1,-,N/A,,Overcast,260,2014-02-22 13:15:00
7:35 AM,2.3,-2.6,80,29.70,10.0,WSW,10.4,18.4,N/A,,Overcast,250,2014-02-22 13:35:00
7:55 AM,2.3,-2.7,79,29.71,10.0,WSW,10.4,17.3,N/A,,Overcast,250,2014-02-22 13:55:00
8:15 AM,2.3,-3.1,78,29.72,10.0,WSW,8.1,16.1,N/A,,Overcast,250,2014-02-22 14:15:00
8:35 AM,2.8,-2.7,78,29.73,10.0,West,6.9,19.6,N/A,,Overcast,260,2014-02-22 14:35:00
8:55 AM,3.6,-2.4,76,29.73,10.0,WSW,8.1,-,N/A,,Overcast,250,2014-02-22 14:55:00
9:15 AM,4.6,-1.8,75,29.73,10.0,WSW,13.8,19.6,N/A,,Overcast,250,2014-02-22 15:15:00
9:35 AM,5.4,-1.7,73,29.74,10.0,West,9.2,18.4,N/A,,Mostly Cloudy,280,2014-02-22 15:35:00
9:55 AM,6.6,-0.9,71,29.74,10.0,West,11.5,17.3,N/A,,Mostly Cloudy,260,2014-02-22 15:55:00
10:15 AM,7.9,-0.2,70,29.74,10.0,WSW,12.7,19.6,N/A,,Mostly Cloudy,250,2014-02-22 16:15:00
10:35 AM,8.2,-0.0,69,29.75,10.0,WSW,13.8,19.6,N/A,,Scattered Clouds,250,2014-02-22 16:35:00
10:55 AM,8.2,0.3,70,29.75,10.0,WSW,13.8,19.6,N/A,,Scattered Clouds,250,2014-02-22 16:55:00
11:15 AM,9.7,1.2,69,29.75,10.0,West,9.2,17.3,N/A,,Mostly Cloudy,270,2014-02-22 17:15:00
11:35 AM,10.4,1.8,68,29.75,10.0,West,8.1,17.3,N/A,,Scattered Clouds,260,2014-02-22 17:35:00
11:55 AM,11.5,2.5,67,29.75,10.0,WSW,12.7,23.0,N/A,,Scattered Clouds,250,2014-02-22 17:55:00
12:15 PM,12.4,3.0,66,29.75,10.0,WSW,13.8,23.0,N/A,,Scattered Clouds,240,2014-02-22 18:15:00
12:35 PM,12.6,3.2,66,29.75,5.0,WSW,15.0,23.0,N/A,,Haze,240,2014-02-22 18:35:00
12:55 PM,12.4,3.0,66,29.74,10.0,WSW,13.8,24.2,N/A,,Mostly Cloudy,250,2014-02-22 18:55:00
1:15 PM,13.6,4.1,66,29.75,10.0,West,10.4,19.6,N/A,,Mostly Cloudy,270,2014-02-22 19:15:00
1:35 PM,13.1,4.6,69,29.75,10.0,WSW,12.7,17.3,N/A,,Overcast,250,2014-02-22 19:35:00
1:55 PM,13.1,3.7,66,29.76,10.0,WSW,11.5,25.3,N/A,,Overcast,250,2014-02-22 19:55:00
2:15 PM,13.8,4.5,66,29.76,10.0,West,9.2,17.3,N/A,,Overcast,260,2014-02-22 20:15:00
2:35 PM,13.1,3.9,67,29.77,10.0,West,8.1,19.6,N/A,,Overcast,280,2014-02-22 20:35:00
3:00 PM,13.3,4.3,67,29.77,10.0,WSW,11.5,21.9,N/A,,Overcast,250,2014-02-22 21:00:00
3:15 PM,13.6,4.1,66,29.78,10.0,West,8.1,18.4,N/A,,Overcast,270,2014-02-22 21:15:00
3:35 PM,12.7,3.9,68,29.78,10.0,West,9.2,19.6,N/A,,Mostly Cloudy,260,2014-02-22 21:35:00
3:55 PM,12.7,4.3,69,29.79,10.0,WSW,9.2,17.3,N/A,,Mostly Cloudy,240,2014-02-22 21:55:00
4:15 PM,12.7,3.7,67,29.79,10.0,WSW,9.2,21.9,N/A,,Overcast,250,2014-02-22 22:15:00
4:35 PM,12.2,4.1,70,29.80,10.0,WSW,6.9,-,N/A,,Mostly Cloudy,250,2014-02-22 22:35:00
4:55 PM,11.8,4.1,71,29.80,10.0,WSW,10.4,-,N/A,,Overcast,250,2014-02-22 22:55:00
5:15 PM,11.3,5.7,78,29.81,5.0,WSW,10.4,16.1,N/A,Snow,Light Snow,250,2014-02-22 23:15:00
5:35 PM,10.8,3.7,73,29.82,10.0,WSW,8.1,-,N/A,,Mostly Cloudy,250,2014-02-22 23:35:00
5:55 PM,10.0,4.1,77,29.82,10.0,WSW,6.9,-,N/A,,Mostly Cloudy,240,2014-02-22 23:55:00
6:15 PM,9.0,3.4,78,29.82,10.0,WSW,9.2,-,N/A,,Mostly Cloudy,240,2014-02-23 00:15:00
6:35 PM,8.2,2.5,77,29.83,10.0,WSW,10.4,-,N/A,,Scattered Clouds,240,2014-02-23 00:35:00
6:55 PM,7.9,2.1,77,29.84,10.0,WSW,10.4,-,N/A,,Clear,240,2014-02-23 00:55:00
7:15 PM,7.5,1.8,77,29.85,10.0,WSW,8.1,16.1,N/A,,Clear,240,2014-02-23 01:15:00
7:40 PM,6.8,1.4,79,29.85,10.0,WSW,8.1,-,N/A,,Clear,240,2014-02-23 01:40:00
7:55 PM,6.6,1.0,78,29.85,10.0,WSW,10.4,16.1,N/A,,Clear,240,2014-02-23 01:55:00
8:15 PM,6.6,0.9,77,29.87,10.0,WSW,8.1,16.1,N/A,,Clear,250,2014-02-23 02:15:00
8:35 PM,6.1,0.5,78,29.87,10.0,WSW,8.1,-,N/A,,Clear,250,2014-02-23 02:35:00
8:55 PM,5.9,0.5,78,29.88,10.0,WSW,9.2,-,N/A,,Clear,240,2014-02-23 02:55:00
9:15 PM,5.7,-0.0,77,29.89,10.0,WSW,8.1,-,N/A,,Clear,240,2014-02-23 03:15:00
9:35 PM,5.0,-0.4,78,29.89,10.0,WSW,8.1,-,N/A,,Clear,250,2014-02-23 03:35:00
9:55 PM,5.0,-0.8,77,29.89,10.0,WSW,8.1,-,N/A,,Clear,250,2014-02-23 03:55:00
10:15 PM,4.8,-1.3,76,29.89,10.0,WSW,8.1,-,N/A,,Clear,240,2014-02-23 04:15:00
10:35 PM,4.1,-1.5,78,29.89,10.0,WSW,5.8,-,N/A,,Clear,250,2014-02-23 04:35:00
10:55 PM,3.9,-2.0,76,29.89,10.0,WSW,5.8,-,N/A,,Clear,250,2014-02-23 04:55:00
11:15 PM,3.6,-2.2,77,29.89,10.0,West,4.6,-,N/A,,Clear,260,2014-02-23 05:15:00
11:35 PM,3.0,-2.6,78,29.90,10.0,WSW,6.9,-,N/A,,Clear,250,2014-02-23 05:35:00
11:55 PM,2.7,-2.9,78,29.91,10.0,WSW,6.9,-,N/A,,Clear,240,2014-02-23 05:55:00